createdAt,value
2018-05-03T07:56:05.690Z,80.20
2018-05-03T07:58:33.209Z,79.30
2018-05-03T08:01:00.717Z,79.00
2018-05-03T08:03:28.222Z,78.40
2018-05-03T08:05:55.989Z,78.60
2018-05-03T08:08:23.505Z,79.10
2018-05-03T08:10:51.838Z,77.90
2018-05-03T08:13:19.349Z,77.90
2018-05-03T08:15:48.061Z,75.00
2018-05-03T08:18:15.591Z,75.00
2018-05-03T08:20:43.874Z,75.40
2018-05-03T08:23:12.153Z,76.90
2018-05-03T08:25:40.438Z,75.80
2018-05-03T08:28:07.950Z,75.80
2018-05-03T08:30:35.465Z,75.40
2018-05-03T08:33:02.985Z,75.30
2018-05-03T08:35:30.560Z,74.60
2018-05-03T08:37:58.834Z,75.10
2018-05-03T08:40:27.116Z,74.40
2018-05-03T08:42:55.403Z,73.80
2018-05-03T08:45:22.923Z,73.80
2018-05-03T08:47:50.445Z,74.00
2018-05-03T08:50:17.966Z,74.50
2018-05-03T08:52:46.258Z,74.00
2018-05-03T08:55:13.774Z,73.90
2018-05-03T08:57:42.073Z,72.70
2018-05-03T09:00:10.353Z,72.60
2018-05-03T09:02:38.629Z,72.40
2018-05-03T09:05:06.933Z,68.60
2018-05-03T09:07:34.460Z,68.50
2018-05-03T09:10:02.746Z,71.20
2018-05-03T09:12:31.030Z,71.30
2018-05-03T09:14:58.537Z,71.30
2018-05-03T09:17:26.063Z,72.70
2018-05-03T09:19:53.579Z,71.40
2018-05-03T09:22:21.099Z,71.90
2018-05-03T09:24:48.610Z,70.60
2018-05-03T09:27:16.905Z,68.10
2018-05-03T09:29:44.422Z,68.00
2018-05-03T09:32:11.947Z,68.40
2018-05-03T09:34:39.457Z,67.80
2018-05-03T09:37:07.841Z,66.70
2018-05-03T09:39:36.121Z,66.00
2018-05-03T09:42:04.408Z,64.30
2018-05-03T09:44:31.955Z,64.30
2018-05-03T09:47:00.242Z,62.90
2018-05-03T09:49:27.762Z,62.80
2018-05-03T09:51:55.280Z,62.20
2018-05-03T09:54:22.797Z,61.50
2018-05-03T09:56:51.085Z,61.50
2018-05-03T09:59:19.454Z,61.10
2018-05-03T10:01:46.914Z,61.00
2018-05-03T10:04:15.189Z,59.30
2018-05-03T10:06:43.469Z,58.80
2018-05-03T10:09:11.809Z,60.50
2018-05-03T10:11:39.334Z,60.40
2018-05-03T10:14:06.849Z,61.70
2018-05-03T10:16:34.374Z,57.90
2018-05-03T10:19:01.892Z,58.60
2018-05-03T10:21:29.414Z,57.50
2018-05-03T10:23:56.926Z,57.00
2018-05-03T10:26:24.453Z,56.40
2018-05-03T10:28:52.729Z,57.50
2018-05-03T10:31:21.014Z,58.10
2018-05-03T10:33:49.298Z,57.80
2018-05-03T10:36:17.607Z,57.00
2018-05-03T10:38:45.117Z,56.90
2018-05-03T10:41:13.397Z,56.10
2018-05-03T10:43:41.677Z,54.30
2018-05-03T10:46:09.970Z,54.80
2018-05-03T10:48:37.515Z,54.80
2018-05-03T10:51:05.014Z,53.50
2018-05-03T10:53:32.542Z,52.40
2018-05-03T10:56:00.829Z,51.60
2018-05-03T10:58:28.333Z,52.30
2018-05-03T11:00:55.855Z,51.10
2018-05-03T11:03:23.367Z,49.60
2018-05-03T11:05:50.882Z,49.40
2018-05-03T11:08:18.389Z,49.30
2018-05-03T11:10:45.905Z,47.80
2018-05-03T11:13:13.421Z,48.30
2018-05-03T11:15:41.702Z,44.90
2018-05-03T11:18:09.982Z,45.20
2018-05-03T11:20:38.261Z,45.70
2018-05-03T11:23:05.775Z,45.60
2018-05-03T11:25:33.287Z,44.30
2018-05-03T11:28:00.833Z,43.60
2018-05-03T11:30:29.112Z,44.70
2018-05-03T11:32:57.381Z,43.60
2018-05-03T11:35:25.668Z,45.60
2018-05-03T11:37:53.177Z,45.50
2018-05-03T11:40:20.697Z,45.30
2018-05-03T11:42:48.280Z,45.30
2018-05-03T11:45:15.747Z,44.20
2018-05-03T11:47:43.258Z,46.00
2018-05-03T11:50:11.534Z,45.80
2018-05-03T11:52:39.813Z,43.90
2018-05-03T11:55:07.326Z,43.80
2018-05-03T11:57:34.836Z,42.10
2018-05-03T12:00:02.342Z,42.10
2018-05-03T12:02:29.868Z,44.40
2018-05-03T12:04:57.393Z,43.70
2018-05-03T12:07:25.665Z,42.40
2018-05-03T12:09:53.950Z,45.30
2018-05-03T12:12:22.225Z,44.10
2018-05-03T12:14:50.509Z,44.10
2018-05-03T12:17:18.781Z,44.10
2018-05-03T12:19:47.066Z,43.60
2018-05-03T12:22:14.579Z,43.50
2018-05-03T12:24:42.089Z,43.70
2018-05-03T12:27:09.603Z,44.40
2018-05-03T12:29:37.122Z,44.00
2018-05-03T12:32:04.642Z,44.00
2018-05-03T12:34:32.926Z,44.30
2018-05-03T12:37:01.208Z,44.40
2018-05-03T12:39:29.494Z,43.40
2018-05-03T12:41:57.005Z,43.40
2018-05-03T12:44:24.521Z,42.20
2018-05-03T12:46:52.042Z,43.60
2018-05-03T12:49:20.317Z,43.70
2018-05-03T12:51:48.623Z,43.90
2018-05-03T12:54:16.133Z,43.90
2018-05-03T12:56:43.667Z,43.80
2018-05-03T12:59:11.176Z,41.90
2018-05-03T13:01:39.452Z,41.50
2018-05-03T13:04:07.738Z,41.10
2018-05-03T13:06:36.012Z,42.40
2018-05-03T13:09:04.305Z,42.50
2018-05-03T13:11:31.830Z,42.50
2018-05-03T13:13:59.341Z,41.90
2018-05-03T13:16:26.870Z,42.60
2018-05-03T13:18:55.146Z,40.80
2018-05-03T13:21:23.421Z,41.10
2018-05-03T13:23:51.713Z,42.10
2018-05-03T13:26:19.221Z,42.00
2018-05-03T13:28:46.726Z,41.80
2018-05-03T13:31:14.255Z,40.10
2018-05-03T13:33:42.549Z,39.90
2018-05-03T13:36:10.831Z,39.10
2018-05-03T13:38:39.105Z,39.70
2018-05-03T13:41:07.407Z,38.60
2018-05-03T13:43:34.903Z,38.50
2018-05-03T13:46:02.417Z,34.80
2018-05-03T13:48:29.926Z,35.70
2018-05-03T13:50:57.432Z,34.40
2018-05-03T13:53:24.947Z,34.20
2018-05-03T13:55:53.230Z,38.80
2018-05-03T13:58:20.738Z,38.40
2018-05-03T14:00:48.281Z,36.80
2018-05-03T14:03:16.570Z,36.40
2018-05-03T14:05:44.084Z,36.40
2018-05-03T14:08:11.593Z,35.70
2018-05-03T14:10:39.105Z,37.40
2018-05-03T14:13:07.514Z,33.60
2018-05-03T14:15:35.022Z,33.60
2018-05-03T14:18:02.551Z,35.80
2018-05-03T14:20:30.054Z,37.00
2018-05-03T14:22:57.563Z,37.60
2018-05-03T14:25:25.076Z,36.50
2018-05-03T14:27:53.359Z,35.80
2018-05-03T14:30:21.644Z,36.40
2018-05-03T14:32:49.917Z,37.20
2018-05-03T14:35:18.190Z,37.70
2018-05-03T14:37:46.470Z,37.10
2018-05-03T14:40:14.742Z,36.80
2018-05-03T14:42:43.026Z,37.40
2018-05-03T14:45:11.300Z,36.60
2018-05-03T14:47:39.575Z,36.60
2018-05-03T14:50:07.849Z,34.80
2018-05-03T14:52:36.130Z,36.00
2018-05-03T14:55:04.399Z,36.00
2018-05-03T14:57:32.682Z,34.80
2018-05-03T15:00:00.962Z,35.30
2018-05-03T15:02:29.234Z,34.30
2018-05-03T15:04:57.510Z,35.00
2018-05-03T15:07:25.789Z,35.50
2018-05-03T15:09:54.070Z,36.50
2018-05-03T15:12:21.585Z,36.50
2018-05-03T15:14:49.108Z,37.00
2018-05-03T15:17:16.617Z,36.00
2018-05-03T15:19:44.129Z,33.70
2018-05-03T15:22:11.657Z,33.70
2018-05-03T15:24:39.933Z,32.90
2018-05-03T15:27:08.218Z,32.70
2018-05-03T15:29:36.488Z,33.40
2018-05-03T15:32:04.785Z,33.60
2018-05-03T15:34:32.551Z,33.60
2018-05-03T15:37:00.211Z,34.10
2018-05-03T15:39:27.733Z,33.40
2018-05-03T15:41:55.241Z,33.70
2018-05-03T15:44:22.742Z,34.80
2018-05-03T15:46:50.265Z,33.40
2018-05-03T15:49:17.777Z,33.00
2018-05-03T15:51:46.054Z,32.90
2018-05-03T15:54:14.334Z,32.90
2018-05-03T15:56:42.609Z,31.60
2018-05-03T15:59:10.882Z,32.70
2018-05-03T16:01:39.200Z,31.60
2018-05-03T16:04:06.697Z,31.60
2018-05-03T16:06:34.221Z,31.30
2018-05-03T16:09:01.726Z,31.70
2018-05-03T16:11:29.250Z,31.40
2018-05-03T16:13:56.761Z,31.60
2018-05-03T16:16:25.030Z,33.10
2018-05-03T16:18:53.314Z,33.60
2018-05-03T16:21:21.593Z,34.20
2018-05-03T16:23:49.861Z,35.10
2018-05-03T16:26:18.142Z,35.60
2018-05-03T16:28:46.417Z,36.50
2018-05-03T16:31:14.694Z,38.60
2018-05-03T16:33:42.965Z,39.90
2018-05-03T16:36:11.267Z,39.90
2018-05-03T16:38:38.770Z,39.80
2018-05-03T16:41:06.269Z,38.80
2018-05-03T16:43:34.546Z,40.80
2018-05-03T16:46:02.813Z,41.40
2018-05-03T16:48:31.093Z,42.50
2018-05-03T16:50:59.368Z,41.30
2018-05-03T16:53:27.641Z,41.90
2018-05-03T16:55:55.909Z,43.40
2018-05-03T16:58:24.197Z,44.10
2018-05-03T17:00:52.482Z,44.90
2018-05-03T17:03:20.761Z,45.10
2018-05-03T17:05:48.271Z,45.00
2018-05-03T17:08:15.808Z,45.10
2018-05-03T17:10:43.314Z,46.00
2018-05-03T17:13:10.821Z,48.30
2018-05-03T17:15:38.329Z,49.70
2018-05-03T17:18:06.602Z,52.30
2018-05-03T17:20:34.898Z,51.90
2018-05-03T17:23:03.177Z,52.50
2018-05-03T17:25:31.465Z,52.90
2018-05-03T17:27:58.974Z,53.00
2018-05-03T17:30:26.477Z,53.10
2018-05-03T17:32:53.997Z,50.80
2018-05-03T17:35:22.290Z,49.00
2018-05-03T17:37:49.806Z,49.00
2018-05-03T17:40:17.325Z,48.10
2018-05-03T17:42:45.601Z,48.50
2018-05-03T17:45:13.885Z,49.00
2018-05-03T17:47:41.410Z,48.90
2018-05-03T17:50:08.926Z,49.20
2018-05-03T17:52:36.466Z,49.80
2018-05-03T17:55:03.977Z,50.00
2018-05-03T17:57:31.495Z,50.70
2018-05-03T17:59:59.021Z,51.60
2018-05-03T18:02:27.304Z,51.60
2018-05-03T18:04:55.590Z,51.90
2018-05-03T18:07:23.119Z,51.90
2018-05-03T18:09:50.626Z,52.60
2018-05-03T18:12:18.142Z,53.20
2018-05-03T18:14:45.661Z,53.00
2018-05-03T18:17:13.173Z,53.90
2018-05-03T18:19:41.458Z,53.50
2018-05-03T18:22:09.740Z,53.90
2018-05-03T18:24:37.257Z,53.90
2018-05-03T18:27:04.875Z,54.40
2018-05-03T18:29:32.381Z,54.90
2018-05-03T18:32:01.120Z,55.10
2018-05-03T18:34:28.653Z,55.50
2018-05-03T18:36:56.933Z,55.80
2018-05-03T18:39:25.228Z,56.00
2018-05-03T18:41:52.754Z,56.00
2018-05-03T18:44:21.037Z,56.20
2018-05-03T18:46:49.306Z,56.30
2018-05-03T18:49:17.613Z,56.50
2018-05-03T18:51:45.122Z,56.50
2018-05-03T18:54:13.402Z,57.50
2018-05-03T18:56:41.678Z,56.90
2018-05-03T18:59:09.965Z,57.00
2018-05-03T19:01:38.241Z,58.00
2018-05-03T19:04:05.760Z,57.30
2018-05-03T19:06:33.281Z,57.60
2018-05-03T19:09:01.573Z,58.00
2018-05-03T19:11:29.151Z,58.10
2018-05-03T19:13:57.411Z,57.90
2018-05-03T19:16:24.930Z,57.90
2018-05-03T19:18:52.447Z,58.20
2018-05-03T19:21:19.957Z,58.50
2018-05-03T19:23:48.311Z,58.90
2018-05-03T19:26:15.765Z,58.90
2018-05-03T19:28:43.277Z,58.70
2018-05-03T19:31:10.793Z,58.50
2018-05-03T19:33:38.311Z,58.20
2018-05-03T19:36:05.828Z,58.00
2018-05-03T19:38:34.106Z,57.50
2018-05-03T19:41:02.389Z,57.40
2018-05-03T19:43:30.701Z,57.20
2018-05-03T19:45:58.202Z,57.10
2018-05-03T19:48:25.713Z,56.80
2018-05-03T19:50:53.221Z,57.00
2018-05-03T19:53:20.747Z,57.40
2018-05-03T19:55:48.269Z,57.90
2018-05-03T19:58:15.801Z,58.00
2018-05-03T20:00:43.313Z,58.10
2018-05-03T20:03:10.821Z,58.20
2018-05-03T20:05:38.336Z,58.30
2018-05-03T20:08:05.866Z,58.50
2018-05-03T20:10:43.741Z,58.60
2018-05-03T20:13:12.038Z,59.10
2018-05-03T20:15:39.559Z,59.00
2018-05-03T20:18:07.074Z,59.30
2018-05-03T20:20:34.590Z,59.50
2018-05-03T20:23:02.098Z,59.90
2018-05-03T20:25:29.614Z,60.30
2018-05-03T20:27:57.889Z,61.50
2018-05-03T20:30:26.178Z,61.30
2018-05-03T20:32:54.506Z,61.40
2018-05-03T20:35:21.998Z,61.40
2018-05-03T20:37:50.284Z,62.50
2018-05-03T20:40:19.245Z,62.90
2018-05-03T20:42:46.753Z,62.90
2018-05-03T20:45:14.273Z,63.30
2018-05-03T20:47:42.562Z,64.60
2018-05-03T20:50:10.101Z,64.60
2018-05-03T20:52:37.606Z,65.20
2018-05-03T20:55:05.130Z,65.20
2018-05-03T20:57:32.650Z,65.10
2018-05-03T21:00:00.157Z,65.10
2018-05-03T21:02:28.453Z,65.00
2018-05-03T21:04:56.733Z,64.20
2018-05-03T21:07:24.249Z,64.20
2018-05-03T21:09:51.767Z,64.00
2018-05-03T21:12:19.277Z,64.30
2018-05-03T21:14:48.309Z,64.00
2018-05-03T21:17:15.821Z,64.00
2018-05-03T21:19:44.839Z,64.10
2018-05-03T21:22:13.121Z,64.60
2018-05-03T21:24:41.407Z,64.80
2018-05-03T21:27:08.925Z,64.80
2018-05-03T21:29:36.440Z,64.60
2018-05-03T21:32:03.961Z,64.40
2018-05-03T21:34:32.249Z,64.70
2018-05-03T21:37:00.543Z,64.80
2018-05-03T21:39:28.053Z,64.80
2018-05-03T21:41:55.566Z,66.00
2018-05-03T21:44:23.090Z,65.50
2018-05-03T21:46:50.610Z,66.00
2018-05-03T21:49:18.122Z,66.50
2018-05-03T21:51:46.426Z,67.20
2018-05-03T21:54:13.937Z,67.30
2018-05-03T21:56:41.450Z,68.20
2018-05-03T21:59:08.973Z,68.60
2018-05-03T22:01:37.260Z,68.40
2018-05-03T22:04:04.773Z,68.40
2018-05-03T22:06:32.284Z,68.50
2018-05-03T22:08:59.802Z,68.40
2018-05-03T22:11:28.082Z,68.10
2018-05-03T22:13:55.641Z,68.20
2018-05-03T22:16:23.138Z,68.10
2018-05-03T22:18:50.653Z,67.90
2018-05-03T22:21:18.166Z,67.90
2018-05-03T22:23:45.682Z,69.40
2018-05-03T22:26:13.961Z,71.30
2018-05-03T22:28:42.250Z,70.80
2018-05-03T22:31:10.534Z,70.40
2018-05-03T22:33:38.809Z,70.30
2018-05-03T22:36:07.101Z,70.30
2018-05-03T22:38:34.617Z,70.20
2018-05-03T22:41:02.902Z,69.40
2018-05-03T22:43:30.421Z,69.40
2018-05-03T22:45:57.940Z,68.60
2018-05-03T22:48:26.217Z,68.80
2018-05-03T22:50:54.503Z,69.10
2018-05-03T22:53:22.022Z,69.20
2018-05-03T22:55:49.535Z,69.30
2018-05-03T22:58:17.052Z,69.40
2018-05-03T23:00:45.329Z,70.30
2018-05-03T23:03:13.613Z,71.20
2018-05-03T23:05:41.900Z,71.70
2018-05-03T23:08:09.425Z,71.60
2018-05-03T23:10:38.442Z,71.60
2018-05-03T23:13:06.730Z,71.70
2018-05-03T23:15:34.246Z,72.40
2018-05-03T23:18:01.773Z,71.80
2018-05-03T23:20:29.281Z,72.00
2018-05-03T23:22:56.794Z,72.10
2018-05-03T23:25:24.321Z,72.30
2018-05-03T23:27:52.597Z,72.90
2018-05-03T23:30:20.891Z,72.90
2018-05-03T23:32:48.406Z,72.80
2018-05-03T23:35:16.706Z,73.10
2018-05-03T23:37:44.239Z,73.10
2018-05-03T23:40:12.514Z,73.70
2018-05-03T23:42:40.035Z,73.60
2018-05-03T23:45:07.545Z,73.90
2018-05-03T23:47:35.845Z,74.50
2018-05-03T23:50:03.363Z,74.30
2018-05-03T23:52:30.881Z,74.10
2018-05-03T23:54:58.397Z,74.50
2018-05-03T23:57:26.678Z,74.40
2018-05-03T23:59:54.969Z,74.40
